createdAt,value
2023-01-05T00:05:59.902Z,99636.22
2023-01-05T00:09:28.044Z,99654.13
2023-01-05T00:12:32.850Z,99642.81
2023-01-05T00:15:20.390Z,99670.53
2023-01-05T00:18:05.726Z,99691.31
2023-01-05T00:20:50.970Z,99712.69
2023-01-05T00:23:21.568Z,99703.22
2023-01-05T00:25:49.350Z,99703.03
2023-01-05T00:28:18.493Z,99706.13
2023-01-05T00:30:46.681Z,99692.16
2023-01-05T00:33:16.114Z,99686.38
2023-01-05T00:35:43.162Z,99687.41
2023-01-05T00:38:10.256Z,99672.00
2023-01-05T00:40:38.645Z,99680.19
2023-01-05T00:43:05.502Z,99674.84
2023-01-05T00:45:32.334Z,99681.00
2023-01-05T00:47:59.113Z,99674.00
2023-01-05T00:50:25.813Z,99667.44
2023-01-05T00:52:52.532Z,99674.19
2023-01-05T00:55:19.191Z,99679.53
2023-01-05T00:57:46.405Z,99669.88
2023-01-05T01:00:17.207Z,99668.66
2023-01-05T01:02:44.219Z,99675.66
2023-01-05T01:05:13.297Z,99676.88
2023-01-05T01:07:42.588Z,99686.53
2023-01-05T01:10:12.573Z,99683.06
2023-01-05T01:15:08.703Z,99680.16
2023-01-05T01:17:35.402Z,99685.97
2023-01-05T01:20:02.037Z,99681.59
2023-01-05T01:22:29.311Z,99684.88
2023-01-05T01:25:15.294Z,99674.19
2023-01-05T01:28:06.968Z,99682.88
2023-01-05T01:30:59.350Z,99689.25
2023-01-05T01:40:11.967Z,99703.03
2023-01-05T01:43:28.919Z,99697.69
2023-01-05T01:46:21.919Z,99706.94
2023-01-05T01:49:12.059Z,99710.81
2023-01-05T01:51:53.601Z,99712.88
2023-01-05T01:55:12.491Z,99703.00
2023-01-05T01:58:08.930Z,99708.16
2023-01-05T02:01:23.193Z,99718.00
2023-01-05T02:04:00.468Z,99720.44
2023-01-05T02:12:54.347Z,99735.69
2023-01-05T02:15:49.973Z,99714.31
2023-01-05T02:18:43.226Z,99733.66
2023-01-05T02:21:25.976Z,99734.28
2023-01-05T02:24:25.664Z,99725.03
2023-01-05T02:27:14.203Z,99735.94
2023-01-05T02:29:53.824Z,99730.38
2023-01-05T02:32:29.425Z,99727.09
2023-01-05T02:35:22.579Z,99728.97
2023-01-05T02:38:32.472Z,99723.41
2023-01-05T02:41:09.124Z,99729.97
2023-01-05T02:43:38.293Z,99727.72
2023-01-05T02:46:05.263Z,99720.31
2023-01-05T02:48:32.503Z,99722.78
2023-01-05T02:51:05.242Z,99734.50
2023-01-05T02:53:41.960Z,99744.59
2023-01-05T02:56:50.240Z,99748.91
2023-01-05T02:59:47.630Z,99745.00
2023-01-05T03:02:45.394Z,99736.56
2023-01-05T03:09:14.009Z,99743.34
2023-01-05T03:12:14.581Z,99757.34
2023-01-05T03:15:13.022Z,99754.66
2023-01-05T03:18:25.290Z,99758.13
2023-01-05T03:24:35.995Z,99768.22
2023-01-05T03:27:58.558Z,99774.00
2023-01-05T03:31:00.227Z,99769.88
2023-01-05T03:44:07.788Z,99790.03
2023-01-05T03:47:08.179Z,99785.09
2023-01-05T03:52:43.178Z,99792.28
2023-01-05T03:58:13.915Z,99808.13
2023-01-05T04:01:16.206Z,99789.81
2023-01-05T04:04:14.011Z,99806.28
2023-01-05T04:13:38.069Z,99820.44
2023-01-05T04:16:29.224Z,99820.84
2023-01-05T04:19:27.664Z,99828.22
2023-01-05T04:22:15.980Z,99819.38
2023-01-05T04:25:04.422Z,99815.88
2023-01-05T04:28:09.437Z,99832.53
2023-01-05T04:31:15.530Z,99830.88
2023-01-05T04:34:07.422Z,99835.41
2023-01-05T04:39:57.969Z,99839.91
2023-01-05T04:43:22.174Z,99852.88
2023-01-05T04:46:01.516Z,99852.69
2023-01-05T04:49:09.202Z,99862.75
2023-01-05T04:52:17.721Z,99863.56
2023-01-05T04:54:57.867Z,99861.72
2023-01-05T05:00:47.554Z,99852.03
2023-01-05T05:04:23.017Z,99865.38
2023-01-05T05:07:15.784Z,99856.13
2023-01-05T05:10:52.796Z,99874.75
2023-01-05T05:13:45.441Z,99872.09
2023-01-05T05:17:08.585Z,99880.91
2023-01-05T05:19:44.851Z,99890.56
2023-01-05T05:22:32.244Z,99894.25
2023-01-05T05:28:39.426Z,99911.69
2023-01-05T05:31:51.457Z,99921.34
2023-01-05T05:37:33.717Z,99942.91
2023-01-05T05:40:25.432Z,99965.09
2023-01-05T05:46:17.754Z,99993.66
2023-01-05T05:49:08.385Z,99986.66
2023-01-05T05:51:48.231Z,99995.06
2023-01-05T05:54:25.111Z,100007.22
2023-01-05T05:57:25.593Z,100013.56
2023-01-05T06:00:25.375Z,100016.44
2023-01-05T06:03:15.236Z,100023.22
2023-01-05T06:06:32.936Z,100035.50
2023-01-05T06:09:07.264Z,100039.41
2023-01-05T06:11:40.485Z,100039.00
2023-01-05T06:17:26.453Z,100053.84
2023-01-05T06:20:24.731Z,100077.50
2023-01-05T06:23:13.571Z,100067.25
2023-01-05T06:25:52.905Z,100066.81
2023-01-05T06:28:46.088Z,100066.59
2023-01-05T06:31:40.654Z,100061.13
2023-01-05T06:34:14.748Z,100051.47
2023-01-05T06:36:41.435Z,100054.78
2023-01-05T06:39:08.146Z,100049.81
2023-01-05T06:41:35.523Z,100044.91
2023-01-05T06:44:04.384Z,100044.66
2023-01-05T06:46:31.152Z,100054.97
2023-01-05T06:48:57.826Z,100052.97
2023-01-05T06:51:24.449Z,100039.53
2023-01-05T06:53:51.082Z,100034.63
2023-01-05T06:56:17.686Z,100049.91
2023-01-05T06:58:44.316Z,100030.13
2023-01-05T07:01:11.037Z,100032.22
2023-01-05T07:03:37.769Z,100033.88
2023-01-05T07:06:05.993Z,100042.22
2023-01-05T07:08:35.360Z,100030.22
2023-01-05T07:11:02.088Z,100036.16
2023-01-05T07:13:28.696Z,100036.09
2023-01-05T07:15:55.574Z,100036.88
2023-01-05T07:18:22.283Z,100046.78
2023-01-05T07:20:48.877Z,100051.47
2023-01-05T07:23:15.496Z,100059.44
2023-01-05T07:25:42.215Z,100067.63
2023-01-05T07:28:08.862Z,100068.69
2023-01-05T07:30:35.484Z,100072.22
2023-01-05T07:33:02.242Z,100079.38
2023-01-05T07:35:28.955Z,100064.44
2023-01-05T07:37:56.865Z,100074.91
2023-01-05T07:40:23.647Z,100076.75
2023-01-05T07:42:52.053Z,100072.63
2023-01-05T07:45:18.996Z,100077.56
2023-01-05T07:47:45.799Z,100071.19
2023-01-05T07:50:12.896Z,100081.25
2023-01-05T07:52:39.552Z,100088.25
2023-01-05T07:55:06.750Z,100087.06
2023-01-05T07:57:33.364Z,100086.44
2023-01-05T08:00:00.128Z,100097.13
2023-01-05T08:02:32.290Z,100098.03
2023-01-05T08:05:02.256Z,100103.09
2023-01-05T08:07:28.925Z,100093.66
2023-01-05T08:10:14.141Z,100102.25
2023-01-05T08:13:00.698Z,100094.84
2023-01-05T08:15:27.292Z,100099.56
2023-01-05T08:17:53.906Z,100103.81
2023-01-05T08:20:20.547Z,100095.63
2023-01-05T08:22:51.552Z,100109.31
2023-01-05T08:25:18.389Z,100116.84
2023-01-05T08:27:45.576Z,100131.81
2023-01-05T08:30:13.340Z,100149.03
2023-01-05T08:32:41.058Z,100151.94
2023-01-05T08:35:08.176Z,100180.03
2023-01-05T08:37:34.799Z,100187.25
2023-01-05T08:40:01.448Z,100208.16
2023-01-05T08:42:28.215Z,100217.41
2023-01-05T08:44:54.836Z,100236.09
2023-01-05T08:47:26.469Z,100245.38
2023-01-05T08:49:54.732Z,100246.03
2023-01-05T08:52:23.321Z,100255.13
2023-01-05T08:54:50.323Z,100267.06
2023-01-05T08:57:17.145Z,100279.16
2023-01-05T08:59:43.788Z,100300.44
2023-01-05T09:02:13.764Z,100302.59
2023-01-05T09:04:40.548Z,100302.94
2023-01-05T09:07:07.145Z,100316.28
2023-01-05T09:09:33.782Z,100314.38
2023-01-05T09:12:00.448Z,100323.41
2023-01-05T09:14:27.135Z,100321.31
2023-01-05T09:17:09.626Z,100319.28
2023-01-05T09:19:36.897Z,100339.00
2023-01-05T09:22:03.733Z,100343.19
2023-01-05T09:24:30.384Z,100334.97
2023-01-05T09:26:57.100Z,100333.66
2023-01-05T09:29:23.891Z,100337.84
2023-01-05T09:31:50.792Z,100334.81
2023-01-05T09:34:19.116Z,100315.06
2023-01-05T09:36:46.160Z,100332.19
2023-01-05T09:39:12.814Z,100317.28
2023-01-05T09:41:45.075Z,100304.44
2023-01-05T09:44:33.432Z,100317.16
2023-01-05T09:47:18.536Z,100305.59
2023-01-05T09:49:47.620Z,100313.81
2023-01-05T09:52:14.648Z,100308.66
2023-01-05T09:54:43.488Z,100321.56
2023-01-05T09:57:21.796Z,100332.44
2023-01-05T09:59:51.045Z,100342.94
2023-01-05T10:02:24.772Z,100346.19
2023-01-05T10:04:52.367Z,100351.34
2023-01-05T10:07:43.562Z,100346.03
2023-01-05T10:10:26.422Z,100355.16
2023-01-05T10:13:05.606Z,100357.53
2023-01-05T10:15:53.488Z,100361.84
2023-01-05T10:18:27.949Z,100366.22
2023-01-05T10:21:11.693Z,100357.25
2023-01-05T10:23:38.478Z,100355.47
2023-01-05T10:26:10.735Z,100361.38
2023-01-05T10:29:01.451Z,100366.09
2023-01-05T10:31:47.065Z,100361.78
2023-01-05T10:34:43.187Z,100360.53
2023-01-05T10:37:47.504Z,100360.00
2023-01-05T10:40:18.561Z,100386.84
2023-01-05T10:43:13.234Z,100384.72
2023-01-05T10:46:03.041Z,100388.75
2023-01-05T10:48:30.102Z,100395.09
2023-01-05T10:50:57.690Z,100397.41
2023-01-05T10:53:28.702Z,100393.69
2023-01-05T10:56:11.056Z,100389.53
2023-01-05T10:58:39.483Z,100379.84
2023-01-05T11:01:21.376Z,100370.41
2023-01-05T11:06:36.947Z,100353.50
2023-01-05T11:09:17.354Z,100344.06
2023-01-05T11:11:57.957Z,100333.50
2023-01-05T11:14:25.182Z,100334.41
2023-01-05T11:16:53.656Z,100327.66
2023-01-05T11:19:28.793Z,100325.47
2023-01-05T11:22:01.709Z,100311.34
2023-01-05T11:24:36.156Z,100312.75
2023-01-05T11:27:23.987Z,100297.47
2023-01-05T11:30:12.430Z,100290.84
2023-01-05T11:32:40.995Z,100298.25
2023-01-05T11:35:29.886Z,100294.88
2023-01-05T11:37:57.903Z,100312.56
2023-01-05T11:40:29.092Z,100303.53
2023-01-05T11:42:55.765Z,100310.38
2023-01-05T11:45:28.743Z,100299.72
2023-01-05T11:47:57.680Z,100299.44
2023-01-05T11:50:30.757Z,100313.66
2023-01-05T11:52:59.443Z,100301.78
2023-01-05T11:55:29.916Z,100306.81
2023-01-05T11:58:15.520Z,100308.28
2023-01-05T12:01:03.945Z,100311.44
2023-01-05T12:04:09.732Z,100315.31
2023-01-05T12:06:46.652Z,100324.84
2023-01-05T12:09:19.563Z,100318.88
2023-01-05T12:11:55.227Z,100316.66
2023-01-05T12:14:31.613Z,100319.31
2023-01-05T12:17:03.236Z,100315.06
2023-01-05T12:19:40.114Z,100318.69
2023-01-05T12:22:12.859Z,100321.78
2023-01-05T12:24:45.715Z,100318.84
2023-01-05T12:27:24.463Z,100311.09
2023-01-05T12:35:43.383Z,100324.22
2023-01-05T12:38:33.283Z,100321.28
2023-01-05T12:41:43.915Z,100330.47
2023-01-05T12:44:28.298Z,100325.88
2023-01-05T12:47:26.452Z,100334.72
2023-01-05T12:50:02.870Z,100340.22
2023-01-05T12:52:37.059Z,100340.94
2023-01-05T12:55:40.419Z,100341.19
2023-01-05T12:58:21.260Z,100347.13
2023-01-05T13:00:48.987Z,100349.03
2023-01-05T13:03:32.123Z,100345.34
2023-01-05T13:06:11.288Z,100352.34
2023-01-05T13:08:50.041Z,100354.00
2023-01-05T13:11:35.690Z,100358.75
2023-01-05T13:14:22.168Z,100362.44
2023-01-05T13:16:58.276Z,100357.06
2023-01-05T13:19:35.336Z,100358.97
2023-01-05T13:22:05.960Z,100377.22
2023-01-05T13:24:37.016Z,100369.81
2023-01-05T13:27:04.166Z,100372.06
2023-01-05T13:29:40.947Z,100380.50
2023-01-05T13:35:08.511Z,100379.16
2023-01-05T13:40:31.248Z,100386.16
2023-01-05T13:43:16.805Z,100392.06
2023-01-05T13:45:53.908Z,100403.84
2023-01-05T13:48:45.394Z,100411.66
2023-01-05T13:51:54.924Z,100407.16
2023-01-05T13:54:48.983Z,100423.19
2023-01-05T13:57:26.145Z,100427.84
2023-01-05T14:00:10.164Z,100434.59
2023-01-05T14:02:42.109Z,100418.75
2023-01-05T14:05:50.745Z,100428.84
2023-01-05T14:08:28.181Z,100427.03
2023-01-05T14:11:10.250Z,100429.44
2023-01-05T14:13:52.240Z,100433.13
2023-01-05T14:16:34.624Z,100437.00
2023-01-05T14:19:14.577Z,100433.78
2023-01-05T14:21:50.280Z,100437.94
2023-01-05T14:27:20.687Z,100445.75
2023-01-05T14:32:34.587Z,100454.78
2023-01-05T14:35:31.784Z,100461.53
2023-01-05T14:38:18.878Z,100459.50
2023-01-05T14:40:49.675Z,100470.38
2023-01-05T14:43:35.678Z,100475.13
2023-01-05T14:46:14.440Z,100469.03
2023-01-05T14:48:58.074Z,100480.25
2023-01-05T14:51:30.108Z,100484.28
2023-01-05T14:54:04.859Z,100486.72
2023-01-05T14:56:37.155Z,100488.59
2023-01-05T14:59:20.086Z,100489.78
2023-01-05T15:01:53.461Z,100488.88
2023-01-05T15:04:28.687Z,100491.19
2023-01-05T15:07:24.422Z,100493.41
2023-01-05T15:09:59.991Z,100495.44
2023-01-05T15:12:47.863Z,100504.72
2023-01-05T15:15:33.101Z,100497.91
2023-01-05T15:21:22.161Z,100494.59
2023-01-05T15:24:14.924Z,100493.22
2023-01-05T15:27:15.705Z,100487.72
2023-01-05T15:30:13.637Z,100496.25
2023-01-05T15:32:45.342Z,100496.53
2023-01-05T15:35:21.599Z,100496.91
2023-01-05T15:37:51.933Z,100493.09
2023-01-05T15:40:21.642Z,100496.63
2023-01-05T15:42:51.007Z,100502.75
2023-01-05T15:45:28.063Z,100513.16
2023-01-05T15:47:58.991Z,100511.06
2023-01-05T15:50:31.401Z,100512.06
2023-01-05T15:53:00.846Z,100515.47
2023-01-05T15:55:29.635Z,100517.94
2023-01-05T15:57:58.497Z,100527.34
2023-01-05T16:00:27.010Z,100550.06
2023-01-05T16:02:53.935Z,100549.41
2023-01-05T16:05:23.425Z,100561.09
2023-01-05T16:08:03.546Z,100572.88
2023-01-05T16:10:38.714Z,100577.03
2023-01-05T16:13:33.226Z,100581.72
2023-01-05T16:16:02.482Z,100589.75
2023-01-05T16:18:37.997Z,100595.06
2023-01-05T16:21:22.161Z,100612.38
2023-01-05T16:24:16.667Z,100612.66
2023-01-05T16:26:43.437Z,100612.66
2023-01-05T16:29:32.794Z,100624.13
2023-01-05T16:32:02.879Z,100638.66
2023-01-05T16:34:31.607Z,100633.44
2023-01-05T16:37:16.443Z,100643.09
2023-01-05T16:39:45.335Z,100647.50
2023-01-05T16:42:39.081Z,100650.63
2023-01-05T16:45:27.326Z,100656.72
2023-01-05T16:47:54.092Z,100653.94
2023-01-05T16:50:20.856Z,100659.75
2023-01-05T16:53:06.895Z,100656.59
2023-01-05T16:55:36.624Z,100655.44
2023-01-05T16:58:06.588Z,100660.13
2023-01-05T17:00:35.247Z,100661.59
2023-01-05T17:03:22.108Z,100651.09
2023-01-05T17:05:56.606Z,100657.63
2023-01-05T17:08:38.787Z,100663.69
2023-01-05T17:11:26.343Z,100662.97
2023-01-05T17:13:57.204Z,100663.88
2023-01-05T17:16:56.846Z,100660.34
2023-01-05T17:19:24.616Z,100670.44
2023-01-05T17:21:58.726Z,100665.63
2023-01-05T17:24:34.888Z,100672.63
2023-01-05T17:29:59.697Z,100673.63
2023-01-05T17:32:32.374Z,100679.97
2023-01-05T17:35:07.315Z,100681.56
2023-01-05T17:37:41.726Z,100684.97
2023-01-05T17:40:20.750Z,100676.59
2023-01-05T17:43:00.533Z,100671.81
2023-01-05T17:46:05.129Z,100667.84
2023-01-05T17:48:41.450Z,100667.28
2023-01-05T17:51:17.264Z,100669.78
2023-01-05T17:53:50.086Z,100673.84
2023-01-05T17:59:05.954Z,100668.22
2023-01-05T18:01:36.805Z,100665.25
2023-01-05T18:04:20.497Z,100668.31
2023-01-05T18:09:18.328Z,100663.03
2023-01-05T18:11:50.111Z,100670.69
2023-01-05T18:14:20.744Z,100665.06
2023-01-05T18:16:51.673Z,100669.28
2023-01-05T18:19:34.660Z,100673.25
2023-01-05T18:22:08.013Z,100669.66
2023-01-05T18:24:39.456Z,100674.94
2023-01-05T18:27:09.537Z,100677.38
2023-01-05T18:29:45.496Z,100690.34
2023-01-05T18:32:14.893Z,100685.69
2023-01-05T18:34:49.429Z,100687.69
2023-01-05T18:37:22.085Z,100689.25
2023-01-05T18:40:15.748Z,100689.34
2023-01-05T18:42:58.044Z,100693.72
2023-01-05T18:45:38.325Z,100687.56
2023-01-05T18:48:28.245Z,100692.34
2023-01-05T18:50:59.841Z,100698.03
2023-01-05T18:53:31.304Z,100693.06
2023-01-05T18:55:58.135Z,100695.91
2023-01-05T18:58:33.257Z,100687.38
2023-01-05T19:01:35.825Z,100696.25
2023-01-05T19:04:17.618Z,100692.41
2023-01-05T19:06:58.613Z,100687.59
2023-01-05T19:09:46.573Z,100685.59
2023-01-05T19:12:21.958Z,100682.06
2023-01-05T19:14:58.846Z,100682.56
2023-01-05T19:17:48.847Z,100671.25
2023-01-05T19:20:34.132Z,100668.25
2023-01-05T19:23:01.192Z,100671.75
2023-01-05T19:25:30.957Z,100663.72
2023-01-05T19:28:05.339Z,100666.94
2023-01-05T19:30:48.889Z,100661.25
2023-01-05T19:36:21.093Z,100651.38
2023-01-05T19:38:58.641Z,100658.19
2023-01-05T19:41:33.816Z,100657.53
2023-01-05T19:44:11.027Z,100658.03
2023-01-05T19:49:51.546Z,100672.44
2023-01-05T19:52:39.394Z,100673.50
2023-01-05T19:55:12.489Z,100663.72
2023-01-05T19:57:46.499Z,100673.25
2023-01-05T20:00:38.210Z,100671.72
2023-01-05T20:03:11.267Z,100670.94
2023-01-05T20:05:43.136Z,100664.28
2023-01-05T20:08:24.122Z,100667.72
2023-01-05T20:10:54.723Z,100664.69
2023-01-05T20:13:40.816Z,100663.50
2023-01-05T20:16:26.213Z,100670.75
2023-01-05T20:18:53.286Z,100664.59
2023-01-05T20:21:22.044Z,100672.59
2023-01-05T20:31:41.281Z,100675.88
2023-01-05T20:34:41.843Z,100681.56
2023-01-05T20:37:24.420Z,100684.03
2023-01-05T20:40:07.722Z,100680.66
2023-01-05T20:42:59.572Z,100675.69
2023-01-05T20:45:32.361Z,100671.84
2023-01-05T20:48:06.303Z,100665.84
2023-01-05T20:53:59.972Z,100670.78
2023-01-05T21:01:24.620Z,100693.88
2023-01-05T21:04:16.628Z,100684.06
2023-01-05T21:07:18.082Z,100688.34
2023-01-05T21:10:16.224Z,100685.06
2023-01-05T21:13:30.762Z,100694.63
2023-01-05T21:16:23.598Z,100685.78
2023-01-05T21:19:12.966Z,100689.47
2023-01-05T21:21:48.837Z,100694.13
2023-01-05T21:24:37.665Z,100688.00
2023-01-05T21:27:12.739Z,100696.09
2023-01-05T21:29:43.890Z,100698.56
2023-01-05T21:32:10.721Z,100691.91
2023-01-05T21:34:37.524Z,100698.19
2023-01-05T21:37:22.904Z,100697.84
2023-01-05T21:39:55.434Z,100691.00
2023-01-05T21:42:47.284Z,100691.72
2023-01-05T21:45:27.454Z,100698.25
2023-01-05T21:48:28.169Z,100685.28
2023-01-05T21:51:46.406Z,100683.91
2023-01-05T21:54:47.131Z,100686.28
2023-01-05T21:57:16.892Z,100693.44
2023-01-05T21:59:48.629Z,100695.16
2023-01-05T22:02:35.083Z,100695.16
2023-01-05T22:05:25.853Z,100704.16
2023-01-05T22:08:07.025Z,100697.47
2023-01-05T22:10:44.618Z,100705.66
2023-01-05T22:13:13.682Z,100703.59
2023-01-05T22:15:47.864Z,100710.09
2023-01-05T22:18:18.001Z,100710.34
2023-01-05T22:20:59.426Z,100719.19
2023-01-05T22:23:31.858Z,100734.41
2023-01-05T22:26:06.318Z,100743.91
2023-01-05T22:28:50.099Z,100762.28
2023-01-05T22:31:21.160Z,100776.09
2023-01-05T22:33:51.458Z,100805.41
2023-01-05T22:36:19.589Z,100822.78
2023-01-05T22:38:47.985Z,100857.16
2023-01-05T22:41:41.129Z,100881.81
2023-01-05T22:44:27.839Z,100899.31
2023-01-05T22:47:06.684Z,100922.13
2023-01-05T22:49:51.814Z,100932.50
2023-01-05T22:52:27.895Z,100932.00
2023-01-05T22:54:57.595Z,100935.31
2023-01-05T22:57:29.048Z,100947.81
2023-01-05T22:59:59.086Z,100962.00
2023-01-05T23:02:30.519Z,100972.81
2023-01-05T23:04:57.548Z,100968.53
2023-01-05T23:07:26.491Z,100946.50
2023-01-05T23:09:59.413Z,100932.78
2023-01-05T23:12:32.137Z,100932.78
2023-01-05T23:14:59.537Z,100930.16
2023-01-05T23:17:31.648Z,100941.47
2023-01-05T23:20:24.192Z,100932.47
2023-01-05T23:23:14.731Z,100931.31
2023-01-05T23:25:54.682Z,100924.97
2023-01-05T23:28:39.589Z,100919.63
2023-01-05T23:31:25.621Z,100913.09
2023-01-05T23:33:52.342Z,100908.09
2023-01-05T23:36:20.382Z,100907.00
2023-01-05T23:39:17.675Z,100911.69
2023-01-05T23:41:52.688Z,100905.50
2023-01-05T23:44:23.723Z,100895.75
2023-01-05T23:47:07.203Z,100903.84
2023-01-05T23:49:40.176Z,100899.44
2023-01-05T23:52:06.993Z,100899.56
2023-01-05T23:54:51.255Z,100901.28
2023-01-05T23:57:20.789Z,100895.63
2023-01-05T23:59:47.781Z,100885.28
